sensor_id;sensor_type;location;lat;lon;timestamp;P1;durP1;ratioP1;P2;durP2;ratioP2
15385;SDS011;7791;47.246;9.648;2023-01-06T00:01:13;9.43;;;6.57;;
15385;SDS011;7791;47.246;9.648;2023-01-06T00:03:40;11.97;;;7.23;;
15385;SDS011;7791;47.246;9.648;2023-01-06T00:06:08;12.00;;;6.87;;
15385;SDS011;7791;47.246;9.648;2023-01-06T00:08:36;14.40;;;7.00;;
15385;SDS011;7791;47.246;9.648;2023-01-06T00:11:05;12.60;;;7.10;;
15385;SDS011;7791;47.246;9.648;2023-01-06T00:13:32;11.20;;;6.37;;
15385;SDS011;7791;47.246;9.648;2023-01-06T00:16:01;13.80;;;5.53;;
15385;SDS011;7791;47.246;9.648;2023-01-06T00:18:30;10.37;;;6.17;;
15385;SDS011;7791;47.246;9.648;2023-01-06T00:20:57;13.67;;;5.53;;
15385;SDS011;7791;47.246;9.648;2023-01-06T00:23:23;9.50;;;5.87;;
15385;SDS011;7791;47.246;9.648;2023-01-06T00:25:49;10.60;;;6.30;;
15385;SDS011;7791;47.246;9.648;2023-01-06T00:28:15;11.83;;;6.37;;
15385;SDS011;7791;47.246;9.648;2023-01-06T00:30:42;9.37;;;6.43;;
15385;SDS011;7791;47.246;9.648;2023-01-06T00:33:07;11.03;;;7.77;;
15385;SDS011;7791;47.246;9.648;2023-01-06T00:35:35;17.20;;;7.63;;
15385;SDS011;7791;47.246;9.648;2023-01-06T00:38:02;13.40;;;8.40;;
15385;SDS011;7791;47.246;9.648;2023-01-06T00:40:28;24.30;;;9.40;;
15385;SDS011;7791;47.246;9.648;2023-01-06T00:42:53;20.60;;;9.97;;
15385;SDS011;7791;47.246;9.648;2023-01-06T00:45:19;25.43;;;9.27;;
15385;SDS011;7791;47.246;9.648;2023-01-06T00:47:45;22.03;;;9.60;;
15385;SDS011;7791;47.246;9.648;2023-01-06T00:50:11;412.30;;;54.20;;
15385;SDS011;7791;47.246;9.648;2023-01-06T00:52:38;252.80;;;35.63;;
15385;SDS011;7791;47.246;9.648;2023-01-06T00:55:06;205.30;;;31.47;;
15385;SDS011;7791;47.246;9.648;2023-01-06T00:57:32;74.23;;;18.50;;
15385;SDS011;7791;47.246;9.648;2023-01-06T00:59:59;85.17;;;17.03;;
15385;SDS011;7791;47.246;9.648;2023-01-06T01:02:25;68.00;;;15.60;;
15385;SDS011;7791;47.246;9.648;2023-01-06T01:04:51;38.93;;;13.20;;
15385;SDS011;7791;47.246;9.648;2023-01-06T01:07:17;47.83;;;13.57;;
15385;SDS011;7791;47.246;9.648;2023-01-06T01:09:44;38.03;;;12.57;;
15385;SDS011;7791;47.246;9.648;2023-01-06T01:12:10;36.67;;;12.20;;
15385;SDS011;7791;47.246;9.648;2023-01-06T01:14:36;37.40;;;11.70;;
15385;SDS011;7791;47.246;9.648;2023-01-06T01:17:05;33.60;;;12.03;;
15385;SDS011;7791;47.246;9.648;2023-01-06T01:19:32;23.83;;;10.37;;
15385;SDS011;7791;47.246;9.648;2023-01-06T01:21:59;42.60;;;12.73;;
15385;SDS011;7791;47.246;9.648;2023-01-06T01:24:25;40.70;;;13.43;;
15385;SDS011;7791;47.246;9.648;2023-01-06T01:26:53;41.80;;;13.33;;
15385;SDS011;7791;47.246;9.648;2023-01-06T01:29:20;37.50;;;13.87;;
15385;SDS011;7791;47.246;9.648;2023-01-06T01:31:47;50.33;;;17.70;;
15385;SDS011;7791;47.246;9.648;2023-01-06T01:34:13;40.60;;;14.33;;
15385;SDS011;7791;47.246;9.648;2023-01-06T01:36:41;29.70;;;11.17;;
15385;SDS011;7791;47.246;9.648;2023-01-06T01:39:08;108.03;;;12.70;;
15385;SDS011;7791;47.246;9.648;2023-01-06T01:41:35;37.07;;;10.83;;
15385;SDS011;7791;47.246;9.648;2023-01-06T01:44:45;39.50;;;11.53;;
15385;SDS011;7791;47.246;9.648;2023-01-06T01:47:07;48.80;;;14.63;;
15385;SDS011;7791;47.246;9.648;2023-01-06T01:49:34;29.83;;;11.77;;
15385;SDS011;7791;47.246;9.648;2023-01-06T01:52:02;27.10;;;10.73;;
15385;SDS011;7791;47.246;9.648;2023-01-06T01:54:29;25.43;;;10.57;;
15385;SDS011;7791;47.246;9.648;2023-01-06T01:57:00;22.20;;;10.20;;
15385;SDS011;7791;47.246;9.648;2023-01-06T01:59:32;28.37;;;14.03;;
15385;SDS011;7791;47.246;9.648;2023-01-06T02:02:00;22.47;;;11.83;;
15385;SDS011;7791;47.246;9.648;2023-01-06T02:04:26;40.13;;;14.67;;
15385;SDS011;7791;47.246;9.648;2023-01-06T02:06:53;25.93;;;13.07;;
15385;SDS011;7791;47.246;9.648;2023-01-06T02:09:20;48.30;;;11.97;;
15385;SDS011;7791;47.246;9.648;2023-01-06T02:11:51;41.77;;;11.53;;
15385;SDS011;7791;47.246;9.648;2023-01-06T02:14:17;35.20;;;11.97;;
15385;SDS011;7791;47.246;9.648;2023-01-06T02:16:59;30.97;;;10.87;;
15385;SDS011;7791;47.246;9.648;2023-01-06T02:19:58;27.83;;;11.80;;
15385;SDS011;7791;47.246;9.648;2023-01-06T02:22:47;31.20;;;11.00;;
15385;SDS011;7791;47.246;9.648;2023-01-06T02:28:45;17.50;;;8.73;;
15385;SDS011;7791;47.246;9.648;2023-01-06T02:34:27;24.47;;;10.50;;
15385;SDS011;7791;47.246;9.648;2023-01-06T02:37:01;23.00;;;9.80;;
15385;SDS011;7791;47.246;9.648;2023-01-06T02:39:38;23.00;;;11.37;;
15385;SDS011;7791;47.246;9.648;2023-01-06T02:42:16;18.57;;;9.57;;
15385;SDS011;7791;47.246;9.648;2023-01-06T02:44:54;19.70;;;10.33;;
15385;SDS011;7791;47.246;9.648;2023-01-06T02:47:31;23.50;;;10.23;;
15385;SDS011;7791;47.246;9.648;2023-01-06T02:49:59;21.80;;;10.57;;
15385;SDS011;7791;47.246;9.648;2023-01-06T02:52:35;20.47;;;10.53;;
15385;SDS011;7791;47.246;9.648;2023-01-06T02:55:09;18.27;;;8.60;;
15385;SDS011;7791;47.246;9.648;2023-01-06T02:57:40;15.57;;;8.00;;
15385;SDS011;7791;47.246;9.648;2023-01-06T03:00:10;13.40;;;7.37;;
15385;SDS011;7791;47.246;9.648;2023-01-06T03:02:44;15.40;;;7.73;;
15385;SDS011;7791;47.246;9.648;2023-01-06T03:05:14;14.13;;;7.60;;
15385;SDS011;7791;47.246;9.648;2023-01-06T03:07:42;18.30;;;8.57;;
15385;SDS011;7791;47.246;9.648;2023-01-06T03:10:09;18.00;;;8.23;;
15385;SDS011;7791;47.246;9.648;2023-01-06T03:12:40;16.20;;;7.93;;
15385;SDS011;7791;47.246;9.648;2023-01-06T03:15:09;15.57;;;7.50;;
15385;SDS011;7791;47.246;9.648;2023-01-06T03:17:37;13.47;;;7.23;;
15385;SDS011;7791;47.246;9.648;2023-01-06T03:20:04;12.43;;;6.07;;
15385;SDS011;7791;47.246;9.648;2023-01-06T03:22:32;12.77;;;6.73;;
15385;SDS011;7791;47.246;9.648;2023-01-06T03:25:00;14.37;;;7.50;;
15385;SDS011;7791;47.246;9.648;2023-01-06T03:27:27;13.40;;;7.03;;
15385;SDS011;7791;47.246;9.648;2023-01-06T03:29:53;15.23;;;7.17;;
15385;SDS011;7791;47.246;9.648;2023-01-06T03:32:20;15.20;;;7.70;;
15385;SDS011;7791;47.246;9.648;2023-01-06T03:34:56;14.90;;;7.77;;
15385;SDS011;7791;47.246;9.648;2023-01-06T03:37:38;14.93;;;7.43;;
15385;SDS011;7791;47.246;9.648;2023-01-06T03:40:12;14.77;;;7.10;;
15385;SDS011;7791;47.246;9.648;2023-01-06T03:42:50;14.47;;;6.97;;
15385;SDS011;7791;47.246;9.648;2023-01-06T03:45:22;14.63;;;7.27;;
15385;SDS011;7791;47.246;9.648;2023-01-06T03:47:59;14.37;;;7.00;;
15385;SDS011;7791;47.246;9.648;2023-01-06T03:50:35;21.70;;;11.10;;
15385;SDS011;7791;47.246;9.648;2023-01-06T03:53:06;14.00;;;7.40;;
15385;SDS011;7791;47.246;9.648;2023-01-06T03:55:40;14.43;;;7.63;;
15385;SDS011;7791;47.246;9.648;2023-01-06T03:58:11;13.67;;;7.10;;
15385;SDS011;7791;47.246;9.648;2023-01-06T04:00:38;11.00;;;6.67;;
15385;SDS011;7791;47.246;9.648;2023-01-06T04:03:06;13.40;;;7.00;;
15385;SDS011;7791;47.246;9.648;2023-01-06T04:05:34;14.43;;;7.13;;
15385;SDS011;7791;47.246;9.648;2023-01-06T04:08:00;14.27;;;7.03;;
15385;SDS011;7791;47.246;9.648;2023-01-06T04:10:26;12.47;;;6.60;;
15385;SDS011;7791;47.246;9.648;2023-01-06T04:12:52;12.60;;;7.03;;
15385;SDS011;7791;47.246;9.648;2023-01-06T04:15:18;12.17;;;6.90;;
15385;SDS011;7791;47.246;9.648;2023-01-06T04:17:46;14.47;;;7.53;;
15385;SDS011;7791;47.246;9.648;2023-01-06T04:20:13;13.47;;;7.07;;
15385;SDS011;7791;47.246;9.648;2023-01-06T04:22:41;11.97;;;6.90;;
15385;SDS011;7791;47.246;9.648;2023-01-06T04:25:07;14.37;;;6.70;;
15385;SDS011;7791;47.246;9.648;2023-01-06T04:27:34;29.77;;;15.80;;
15385;SDS011;7791;47.246;9.648;2023-01-06T04:30:01;17.03;;;9.30;;
15385;SDS011;7791;47.246;9.648;2023-01-06T04:32:28;19.33;;;7.13;;
15385;SDS011;7791;47.246;9.648;2023-01-06T04:34:53;13.77;;;7.13;;
15385;SDS011;7791;47.246;9.648;2023-01-06T04:37:19;14.37;;;7.17;;
15385;SDS011;7791;47.246;9.648;2023-01-06T04:39:47;16.60;;;7.97;;
15385;SDS011;7791;47.246;9.648;2023-01-06T04:42:12;16.83;;;8.27;;
15385;SDS011;7791;47.246;9.648;2023-01-06T04:44:38;20.00;;;7.63;;
15385;SDS011;7791;47.246;9.648;2023-01-06T04:47:05;14.10;;;7.53;;
15385;SDS011;7791;47.246;9.648;2023-01-06T04:49:31;14.77;;;7.53;;
15385;SDS011;7791;47.246;9.648;2023-01-06T04:51:57;14.83;;;8.20;;
15385;SDS011;7791;47.246;9.648;2023-01-06T04:54:23;13.70;;;8.10;;
15385;SDS011;7791;47.246;9.648;2023-01-06T04:56:51;12.80;;;7.47;;
15385;SDS011;7791;47.246;9.648;2023-01-06T04:59:17;11.83;;;7.10;;
15385;SDS011;7791;47.246;9.648;2023-01-06T05:01:43;12.53;;;7.43;;
15385;SDS011;7791;47.246;9.648;2023-01-06T05:04:09;14.13;;;7.87;;
15385;SDS011;7791;47.246;9.648;2023-01-06T05:06:35;12.20;;;7.20;;
15385;SDS011;7791;47.246;9.648;2023-01-06T05:09:01;11.83;;;6.73;;
15385;SDS011;7791;47.246;9.648;2023-01-06T05:11:27;14.80;;;7.47;;
15385;SDS011;7791;47.246;9.648;2023-01-06T05:13:54;12.53;;;7.57;;
15385;SDS011;7791;47.246;9.648;2023-01-06T05:16:21;12.90;;;7.13;;
15385;SDS011;7791;47.246;9.648;2023-01-06T05:18:51;12.00;;;6.73;;
15385;SDS011;7791;47.246;9.648;2023-01-06T05:21:17;11.90;;;6.70;;
15385;SDS011;7791;47.246;9.648;2023-01-06T05:23:43;12.47;;;6.60;;
15385;SDS011;7791;47.246;9.648;2023-01-06T05:26:14;12.03;;;6.87;;
15385;SDS011;7791;47.246;9.648;2023-01-06T05:28:44;13.00;;;6.80;;
15385;SDS011;7791;47.246;9.648;2023-01-06T05:31:12;11.57;;;6.37;;
15385;SDS011;7791;47.246;9.648;2023-01-06T05:33:40;10.73;;;5.83;;
15385;SDS011;7791;47.246;9.648;2023-01-06T05:36:07;10.63;;;5.57;;
15385;SDS011;7791;47.246;9.648;2023-01-06T05:38:34;12.33;;;6.73;;
15385;SDS011;7791;47.246;9.648;2023-01-06T05:41:01;13.30;;;6.60;;
15385;SDS011;7791;47.246;9.648;2023-01-06T05:43:27;16.63;;;7.27;;
15385;SDS011;7791;47.246;9.648;2023-01-06T05:45:53;11.23;;;6.80;;
15385;SDS011;7791;47.246;9.648;2023-01-06T05:48:21;13.17;;;6.60;;
15385;SDS011;7791;47.246;9.648;2023-01-06T05:50:49;16.23;;;6.50;;
15385;SDS011;7791;47.246;9.648;2023-01-06T05:53:15;11.13;;;6.40;;
15385;SDS011;7791;47.246;9.648;2023-01-06T05:55:41;9.80;;;5.80;;
15385;SDS011;7791;47.246;9.648;2023-01-06T05:58:07;14.30;;;7.43;;
15385;SDS011;7791;47.246;9.648;2023-01-06T06:00:32;10.93;;;6.67;;
15385;SDS011;7791;47.246;9.648;2023-01-06T06:02:59;11.03;;;6.07;;
15385;SDS011;7791;47.246;9.648;2023-01-06T06:05:26;9.40;;;5.70;;
15385;SDS011;7791;47.246;9.648;2023-01-06T06:07:53;11.50;;;6.23;;
15385;SDS011;7791;47.246;9.648;2023-01-06T06:10:19;12.10;;;5.83;;
15385;SDS011;7791;47.246;9.648;2023-01-06T06:12:45;9.07;;;5.87;;
15385;SDS011;7791;47.246;9.648;2023-01-06T06:15:11;11.37;;;6.10;;
15385;SDS011;7791;47.246;9.648;2023-01-06T06:17:36;10.47;;;6.63;;
15385;SDS011;7791;47.246;9.648;2023-01-06T06:20:03;10.83;;;6.20;;
15385;SDS011;7791;47.246;9.648;2023-01-06T06:22:31;11.07;;;6.27;;
15385;SDS011;7791;47.246;9.648;2023-01-06T06:24:57;14.77;;;6.50;;
15385;SDS011;7791;47.246;9.648;2023-01-06T06:27:23;10.00;;;6.23;;
15385;SDS011;7791;47.246;9.648;2023-01-06T06:29:50;12.70;;;7.13;;
15385;SDS011;7791;47.246;9.648;2023-01-06T06:32:16;20.30;;;6.70;;
15385;SDS011;7791;47.246;9.648;2023-01-06T06:34:42;12.60;;;6.43;;
15385;SDS011;7791;47.246;9.648;2023-01-06T06:37:08;8.87;;;5.03;;
15385;SDS011;7791;47.246;9.648;2023-01-06T06:39:36;9.30;;;5.43;;
15385;SDS011;7791;47.246;9.648;2023-01-06T06:42:02;11.33;;;6.13;;
15385;SDS011;7791;47.246;9.648;2023-01-06T06:44:30;9.90;;;5.70;;
15385;SDS011;7791;47.246;9.648;2023-01-06T06:46:56;10.10;;;5.77;;
15385;SDS011;7791;47.246;9.648;2023-01-06T06:49:22;9.70;;;6.27;;
15385;SDS011;7791;47.246;9.648;2023-01-06T06:51:48;11.87;;;5.63;;
15385;SDS011;7791;47.246;9.648;2023-01-06T06:54:14;9.60;;;6.33;;
15385;SDS011;7791;47.246;9.648;2023-01-06T06:56:41;13.17;;;7.50;;
15385;SDS011;7791;47.246;9.648;2023-01-06T06:59:07;14.27;;;7.63;;
15385;SDS011;7791;47.246;9.648;2023-01-06T07:01:33;23.13;;;11.60;;
15385;SDS011;7791;47.246;9.648;2023-01-06T07:03:59;21.47;;;11.43;;
15385;SDS011;7791;47.246;9.648;2023-01-06T07:06:25;20.40;;;11.53;;
15385;SDS011;7791;47.246;9.648;2023-01-06T07:08:51;19.40;;;11.30;;
15385;SDS011;7791;47.246;9.648;2023-01-06T07:11:17;26.13;;;11.03;;
15385;SDS011;7791;47.246;9.648;2023-01-06T07:13:44;25.27;;;11.00;;
15385;SDS011;7791;47.246;9.648;2023-01-06T07:16:11;19.07;;;10.13;;
15385;SDS011;7791;47.246;9.648;2023-01-06T07:18:37;22.10;;;10.37;;
15385;SDS011;7791;47.246;9.648;2023-01-06T07:21:03;19.53;;;10.00;;
15385;SDS011;7791;47.246;9.648;2023-01-06T07:23:29;23.43;;;10.30;;
15385;SDS011;7791;47.246;9.648;2023-01-06T07:25:55;22.80;;;11.33;;
15385;SDS011;7791;47.246;9.648;2023-01-06T07:28:23;23.33;;;11.83;;
15385;SDS011;7791;47.246;9.648;2023-01-06T07:30:51;18.40;;;10.53;;
15385;SDS011;7791;47.246;9.648;2023-01-06T07:33:18;19.37;;;11.13;;
15385;SDS011;7791;47.246;9.648;2023-01-06T07:35:45;25.60;;;13.43;;
15385;SDS011;7791;47.246;9.648;2023-01-06T07:38:11;24.00;;;13.47;;
15385;SDS011;7791;47.246;9.648;2023-01-06T07:40:37;27.47;;;15.37;;
15385;SDS011;7791;47.246;9.648;2023-01-06T07:43:03;38.30;;;20.23;;
15385;SDS011;7791;47.246;9.648;2023-01-06T07:45:32;38.97;;;19.57;;
15385;SDS011;7791;47.246;9.648;2023-01-06T07:48:00;44.30;;;22.77;;
15385;SDS011;7791;47.246;9.648;2023-01-06T07:50:29;46.37;;;22.93;;
15385;SDS011;7791;47.246;9.648;2023-01-06T07:52:56;52.87;;;27.30;;
15385;SDS011;7791;47.246;9.648;2023-01-06T07:55:22;50.50;;;26.50;;
15385;SDS011;7791;47.246;9.648;2023-01-06T07:57:48;33.53;;;18.80;;
15385;SDS011;7791;47.246;9.648;2023-01-06T08:00:14;32.07;;;17.97;;
15385;SDS011;7791;47.246;9.648;2023-01-06T08:02:40;46.73;;;24.67;;
15385;SDS011;7791;47.246;9.648;2023-01-06T08:05:08;33.63;;;19.50;;
15385;SDS011;7791;47.246;9.648;2023-01-06T08:07:33;28.43;;;15.83;;
15385;SDS011;7791;47.246;9.648;2023-01-06T08:09:59;36.20;;;17.93;;
15385;SDS011;7791;47.246;9.648;2023-01-06T08:12:26;31.27;;;15.27;;
15385;SDS011;7791;47.246;9.648;2023-01-06T08:14:51;31.50;;;16.57;;
15385;SDS011;7791;47.246;9.648;2023-01-06T08:17:17;33.77;;;17.43;;
15385;SDS011;7791;47.246;9.648;2023-01-06T08:19:43;29.00;;;16.70;;
15385;SDS011;7791;47.246;9.648;2023-01-06T08:22:10;31.70;;;17.43;;
15385;SDS011;7791;47.246;9.648;2023-01-06T08:24:38;32.87;;;17.47;;
15385;SDS011;7791;47.246;9.648;2023-01-06T08:27:04;31.47;;;18.10;;
15385;SDS011;7791;47.246;9.648;2023-01-06T08:29:30;31.13;;;16.83;;
15385;SDS011;7791;47.246;9.648;2023-01-06T08:31:57;24.73;;;14.90;;
15385;SDS011;7791;47.246;9.648;2023-01-06T08:34:23;24.70;;;14.57;;
15385;SDS011;7791;47.246;9.648;2023-01-06T08:36:48;27.80;;;15.80;;
15385;SDS011;7791;47.246;9.648;2023-01-06T08:39:16;29.13;;;14.70;;
15385;SDS011;7791;47.246;9.648;2023-01-06T08:41:42;33.30;;;17.67;;
15385;SDS011;7791;47.246;9.648;2023-01-06T08:44:07;35.63;;;18.57;;
15385;SDS011;7791;47.246;9.648;2023-01-06T08:46:34;78.20;;;24.80;;
15385;SDS011;7791;47.246;9.648;2023-01-06T08:49:01;31.83;;;18.37;;
15385;SDS011;7791;47.246;9.648;2023-01-06T08:51:27;135.97;;;22.47;;
15385;SDS011;7791;47.246;9.648;2023-01-06T08:53:53;21.43;;;12.90;;
15385;SDS011;7791;47.246;9.648;2023-01-06T08:56:21;18.63;;;12.23;;
15385;SDS011;7791;47.246;9.648;2023-01-06T08:58:51;24.77;;;12.67;;
15385;SDS011;7791;47.246;9.648;2023-01-06T09:01:20;146.60;;;51.70;;
15385;SDS011;7791;47.246;9.648;2023-01-06T09:03:48;32.63;;;15.67;;
15385;SDS011;7791;47.246;9.648;2023-01-06T09:06:16;17.63;;;9.70;;
15385;SDS011;7791;47.246;9.648;2023-01-06T09:08:42;23.90;;;9.10;;
15385;SDS011;7791;47.246;9.648;2023-01-06T09:11:09;14.00;;;7.90;;
15385;SDS011;7791;47.246;9.648;2023-01-06T09:13:37;13.23;;;8.27;;
15385;SDS011;7791;47.246;9.648;2023-01-06T09:16:04;12.30;;;7.47;;
15385;SDS011;7791;47.246;9.648;2023-01-06T09:18:29;19.43;;;10.70;;
15385;SDS011;7791;47.246;9.648;2023-01-06T09:20:55;15.70;;;9.33;;
15385;SDS011;7791;47.246;9.648;2023-01-06T09:23:21;13.53;;;7.57;;
15385;SDS011;7791;47.246;9.648;2023-01-06T09:25:48;8.80;;;6.47;;
15385;SDS011;7791;47.246;9.648;2023-01-06T09:28:14;7.60;;;5.10;;
15385;SDS011;7791;47.246;9.648;2023-01-06T09:30:41;8.80;;;5.07;;
15385;SDS011;7791;47.246;9.648;2023-01-06T09:33:07;12.07;;;5.97;;
15385;SDS011;7791;47.246;9.648;2023-01-06T09:35:33;9.63;;;5.80;;
15385;SDS011;7791;47.246;9.648;2023-01-06T09:38:00;6.97;;;4.43;;
15385;SDS011;7791;47.246;9.648;2023-01-06T09:40:29;10.13;;;4.90;;
15385;SDS011;7791;47.246;9.648;2023-01-06T09:43:04;8.10;;;4.97;;
15385;SDS011;7791;47.246;9.648;2023-01-06T09:45:40;10.43;;;5.67;;
15385;SDS011;7791;47.246;9.648;2023-01-06T09:48:12;5.70;;;4.10;;
15385;SDS011;7791;47.246;9.648;2023-01-06T09:50:42;7.87;;;4.87;;
15385;SDS011;7791;47.246;9.648;2023-01-06T09:53:12;10.43;;;5.40;;
15385;SDS011;7791;47.246;9.648;2023-01-06T09:55:42;7.40;;;4.07;;
15385;SDS011;7791;47.246;9.648;2023-01-06T09:58:11;4.63;;;2.50;;
15385;SDS011;7791;47.246;9.648;2023-01-06T10:00:40;3.27;;;2.40;;
15385;SDS011;7791;47.246;9.648;2023-01-06T10:03:10;6.23;;;3.77;;
15385;SDS011;7791;47.246;9.648;2023-01-06T10:05:40;15.43;;;8.73;;
15385;SDS011;7791;47.246;9.648;2023-01-06T10:08:23;7.47;;;2.87;;
15385;SDS011;7791;47.246;9.648;2023-01-06T10:11:03;2.07;;;1.53;;
15385;SDS011;7791;47.246;9.648;2023-01-06T10:13:40;2.93;;;2.03;;
15385;SDS011;7791;47.246;9.648;2023-01-06T10:16:20;3.27;;;2.40;;
15385;SDS011;7791;47.246;9.648;2023-01-06T10:18:57;2.93;;;2.33;;
15385;SDS011;7791;47.246;9.648;2023-01-06T10:21:34;5.83;;;2.07;;
15385;SDS011;7791;47.246;9.648;2023-01-06T10:24:15;2.67;;;1.90;;
15385;SDS011;7791;47.246;9.648;2023-01-06T10:26:50;3.80;;;1.87;;
15385;SDS011;7791;47.246;9.648;2023-01-06T10:29:21;3.23;;;1.90;;
15385;SDS011;7791;47.246;9.648;2023-01-06T10:31:53;3.00;;;2.47;;
15385;SDS011;7791;47.246;9.648;2023-01-06T10:34:23;7.30;;;2.70;;
15385;SDS011;7791;47.246;9.648;2023-01-06T10:36:51;4.53;;;2.23;;
15385;SDS011;7791;47.246;9.648;2023-01-06T10:39:23;2.10;;;1.70;;
15385;SDS011;7791;47.246;9.648;2023-01-06T10:41:54;4.97;;;2.23;;
15385;SDS011;7791;47.246;9.648;2023-01-06T10:44:32;3.63;;;1.97;;
15385;SDS011;7791;47.246;9.648;2023-01-06T10:46:57;4.67;;;2.40;;
15385;SDS011;7791;47.246;9.648;2023-01-06T10:49:25;4.53;;;2.40;;
15385;SDS011;7791;47.246;9.648;2023-01-06T10:51:52;1.70;;;1.37;;
15385;SDS011;7791;47.246;9.648;2023-01-06T10:54:24;3.00;;;1.53;;
15385;SDS011;7791;47.246;9.648;2023-01-06T10:56:52;2.83;;;1.33;;
15385;SDS011;7791;47.246;9.648;2023-01-06T10:59:22;1.23;;;0.93;;
15385;SDS011;7791;47.246;9.648;2023-01-06T11:01:49;1.33;;;1.20;;
15385;SDS011;7791;47.246;9.648;2023-01-06T11:04:20;1.83;;;1.17;;
15385;SDS011;7791;47.246;9.648;2023-01-06T11:06:52;2.33;;;1.10;;
15385;SDS011;7791;47.246;9.648;2023-01-06T11:09:28;1.67;;;1.37;;
15385;SDS011;7791;47.246;9.648;2023-01-06T11:11:58;2.50;;;1.40;;
15385;SDS011;7791;47.246;9.648;2023-01-06T11:14:27;2.27;;;1.43;;
15385;SDS011;7791;47.246;9.648;2023-01-06T11:16:55;2.93;;;1.53;;
15385;SDS011;7791;47.246;9.648;2023-01-06T11:19:30;1.60;;;1.37;;
15385;SDS011;7791;47.246;9.648;2023-01-06T11:22:00;2.17;;;1.20;;
15385;SDS011;7791;47.246;9.648;2023-01-06T11:24:26;2.83;;;1.27;;
15385;SDS011;7791;47.246;9.648;2023-01-06T11:26:54;2.37;;;1.60;;
15385;SDS011;7791;47.246;9.648;2023-01-06T11:29:23;4.23;;;1.63;;
15385;SDS011;7791;47.246;9.648;2023-01-06T11:31:54;3.03;;;2.00;;
15385;SDS011;7791;47.246;9.648;2023-01-06T11:34:21;3.00;;;1.63;;
15385;SDS011;7791;47.246;9.648;2023-01-06T11:36:49;2.70;;;1.90;;
15385;SDS011;7791;47.246;9.648;2023-01-06T11:39:20;3.57;;;2.23;;
15385;SDS011;7791;47.246;9.648;2023-01-06T11:41:50;2.60;;;1.60;;
15385;SDS011;7791;47.246;9.648;2023-01-06T11:44:22;2.53;;;1.73;;
15385;SDS011;7791;47.246;9.648;2023-01-06T11:46:55;3.30;;;2.30;;
15385;SDS011;7791;47.246;9.648;2023-01-06T11:49:24;3.33;;;2.50;;
15385;SDS011;7791;47.246;9.648;2023-01-06T11:51:58;3.93;;;2.40;;
15385;SDS011;7791;47.246;9.648;2023-01-06T11:54:32;4.80;;;2.73;;
15385;SDS011;7791;47.246;9.648;2023-01-06T11:57:02;2.90;;;2.33;;
15385;SDS011;7791;47.246;9.648;2023-01-06T12:02:44;4.27;;;3.00;;
15385;SDS011;7791;47.246;9.648;2023-01-06T12:05:16;6.07;;;3.60;;
15385;SDS011;7791;47.246;9.648;2023-01-06T12:07:50;4.63;;;3.37;;
15385;SDS011;7791;47.246;9.648;2023-01-06T12:10:21;3.93;;;3.00;;
15385;SDS011;7791;47.246;9.648;2023-01-06T12:12:51;4.30;;;3.20;;
15385;SDS011;7791;47.246;9.648;2023-01-06T12:15:17;6.07;;;3.33;;
15385;SDS011;7791;47.246;9.648;2023-01-06T12:17:45;4.93;;;3.20;;
15385;SDS011;7791;47.246;9.648;2023-01-06T12:20:16;4.00;;;3.00;;
15385;SDS011;7791;47.246;9.648;2023-01-06T12:22:47;3.63;;;2.83;;
15385;SDS011;7791;47.246;9.648;2023-01-06T12:25:16;4.00;;;2.80;;
15385;SDS011;7791;47.246;9.648;2023-01-06T12:27:47;3.87;;;3.10;;
15385;SDS011;7791;47.246;9.648;2023-01-06T12:30:26;3.97;;;2.57;;
15385;SDS011;7791;47.246;9.648;2023-01-06T12:32:57;3.43;;;2.10;;
15385;SDS011;7791;47.246;9.648;2023-01-06T12:35:27;2.83;;;2.07;;
15385;SDS011;7791;47.246;9.648;2023-01-06T12:37:59;3.23;;;2.30;;
15385;SDS011;7791;47.246;9.648;2023-01-06T12:40:29;3.00;;;2.40;;
15385;SDS011;7791;47.246;9.648;2023-01-06T12:43:04;3.83;;;2.60;;
15385;SDS011;7791;47.246;9.648;2023-01-06T12:45:41;2.70;;;2.00;;
15385;SDS011;7791;47.246;9.648;2023-01-06T12:48:15;3.17;;;2.37;;
15385;SDS011;7791;47.246;9.648;2023-01-06T12:50:48;4.00;;;2.80;;
15385;SDS011;7791;47.246;9.648;2023-01-06T12:53:21;5.00;;;2.70;;
15385;SDS011;7791;47.246;9.648;2023-01-06T12:55:52;5.60;;;3.80;;
15385;SDS011;7791;47.246;9.648;2023-01-06T12:58:31;5.27;;;3.73;;
15385;SDS011;7791;47.246;9.648;2023-01-06T13:01:05;5.73;;;3.50;;
15385;SDS011;7791;47.246;9.648;2023-01-06T13:03:46;4.07;;;2.90;;
15385;SDS011;7791;47.246;9.648;2023-01-06T13:06:51;4.43;;;3.20;;
15385;SDS011;7791;47.246;9.648;2023-01-06T13:09:30;4.67;;;3.60;;
15385;SDS011;7791;47.246;9.648;2023-01-06T13:12:14;4.20;;;3.50;;
15385;SDS011;7791;47.246;9.648;2023-01-06T13:14:57;5.00;;;3.80;;
15385;SDS011;7791;47.246;9.648;2023-01-06T13:17:31;4.40;;;3.10;;
15385;SDS011;7791;47.246;9.648;2023-01-06T13:20:05;4.70;;;2.93;;
15385;SDS011;7791;47.246;9.648;2023-01-06T13:22:41;5.47;;;3.00;;
15385;SDS011;7791;47.246;9.648;2023-01-06T13:25:32;3.63;;;2.63;;
15385;SDS011;7791;47.246;9.648;2023-01-06T13:28:16;3.97;;;2.80;;
15385;SDS011;7791;47.246;9.648;2023-01-06T13:31:00;3.23;;;2.57;;
15385;SDS011;7791;47.246;9.648;2023-01-06T13:39:31;3.03;;;1.80;;
15385;SDS011;7791;47.246;9.648;2023-01-06T13:41:59;3.00;;;2.10;;
15385;SDS011;7791;47.246;9.648;2023-01-06T13:44:27;1.90;;;1.70;;
15385;SDS011;7791;47.246;9.648;2023-01-06T13:46:58;3.60;;;1.93;;
15385;SDS011;7791;47.246;9.648;2023-01-06T13:49:28;3.10;;;1.73;;
15385;SDS011;7791;47.246;9.648;2023-01-06T13:51:55;2.40;;;1.77;;
15385;SDS011;7791;47.246;9.648;2023-01-06T13:57:31;2.00;;;1.70;;
15385;SDS011;7791;47.246;9.648;2023-01-06T14:00:13;2.57;;;1.73;;
15385;SDS011;7791;47.246;9.648;2023-01-06T14:06:03;2.07;;;1.83;;
15385;SDS011;7791;47.246;9.648;2023-01-06T14:08:33;3.27;;;1.83;;
15385;SDS011;7791;47.246;9.648;2023-01-06T14:11:04;1.97;;;1.70;;
15385;SDS011;7791;47.246;9.648;2023-01-06T14:13:48;2.10;;;1.50;;
15385;SDS011;7791;47.246;9.648;2023-01-06T14:16:17;2.60;;;1.73;;
15385;SDS011;7791;47.246;9.648;2023-01-06T14:18:45;2.00;;;1.57;;
15385;SDS011;7791;47.246;9.648;2023-01-06T14:21:21;4.23;;;1.70;;
15385;SDS011;7791;47.246;9.648;2023-01-06T14:27:09;2.00;;;1.50;;
15385;SDS011;7791;47.246;9.648;2023-01-06T14:35:35;1.60;;;1.30;;
15385;SDS011;7791;47.246;9.648;2023-01-06T14:38:05;2.27;;;1.30;;
15385;SDS011;7791;47.246;9.648;2023-01-06T14:40:44;1.70;;;1.20;;
15385;SDS011;7791;47.246;9.648;2023-01-06T14:43:25;1.67;;;1.43;;
15385;SDS011;7791;47.246;9.648;2023-01-06T14:46:05;1.80;;;1.30;;
15385;SDS011;7791;47.246;9.648;2023-01-06T14:48:40;2.00;;;1.40;;
15385;SDS011;7791;47.246;9.648;2023-01-06T14:51:13;3.37;;;1.37;;
15385;SDS011;7791;47.246;9.648;2023-01-06T14:53:45;8.33;;;7.13;;
15385;SDS011;7791;47.246;9.648;2023-01-06T14:56:22;32.03;;;28.60;;
15385;SDS011;7791;47.246;9.648;2023-01-06T14:59:00;1.70;;;1.50;;
15385;SDS011;7791;47.246;9.648;2023-01-06T15:01:28;7.40;;;6.80;;
15385;SDS011;7791;47.246;9.648;2023-01-06T15:03:57;35.50;;;31.97;;
15385;SDS011;7791;47.246;9.648;2023-01-06T15:06:27;38.47;;;31.33;;
15385;SDS011;7791;47.246;9.648;2023-01-06T15:08:54;9.97;;;7.23;;
15385;SDS011;7791;47.246;9.648;2023-01-06T15:11:38;10.93;;;8.10;;
15385;SDS011;7791;47.246;9.648;2023-01-06T15:14:21;3.83;;;2.40;;
15385;SDS011;7791;47.246;9.648;2023-01-06T15:16:48;4.37;;;2.30;;
15385;SDS011;7791;47.246;9.648;2023-01-06T15:19:14;3.00;;;2.70;;
15385;SDS011;7791;47.246;9.648;2023-01-06T15:21:43;2.37;;;1.53;;
15385;SDS011;7791;47.246;9.648;2023-01-06T15:24:14;4.10;;;1.80;;
15385;SDS011;7791;47.246;9.648;2023-01-06T15:26:43;4.43;;;2.20;;
15385;SDS011;7791;47.246;9.648;2023-01-06T15:29:12;5.80;;;3.70;;
15385;SDS011;7791;47.246;9.648;2023-01-06T15:31:41;7.40;;;3.37;;
15385;SDS011;7791;47.246;9.648;2023-01-06T15:34:08;5.23;;;2.77;;